Time;durP1;ratioP1;P1;durP2;ratioP2;P2;SDS_P1;SDS_P2;PMS_P1;PMS_P2;Temp;Humidity;BMP_temperature;BMP_pressure;BME280_temperature;BME280_humidity;BME280_pressure;Samples;Min_cycle;Max_cycle;Signal;HPM_P1;HPM_P2
2022/04/19 00:00:10;;;;;;;2.28;1.05;;;;;;;26.71;24.64;96305.88;4874958;28;21012;-38
2022/04/19 00:02:35;;;;;;;4.20;0.70;;;;;;;26.70;24.68;96308.59;4874405;28;20043;-31
2022/04/19 00:05:01;;;;;;;1.10;0.85;;;;;;;26.71;24.75;96311.13;4874093;28;20122;-34
2022/04/19 00:07:27;;;;;;;2.22;0.80;;;;;;;26.70;24.67;96298.91;4869102;28;20094;-35
2022/04/19 00:09:52;;;;;;;1.58;1.00;;;;;;;26.71;24.76;96305.00;4873457;28;21908;-34
2022/04/19 00:12:18;;;;;;;1.60;0.88;;;;;;;26.70;24.66;96298.91;4870299;28;20629;-31
2022/04/19 00:14:44;;;;;;;2.72;0.90;;;;;;;26.70;24.77;96298.91;4872832;28;21041;-34
2022/04/19 00:17:09;;;;;;;2.95;0.88;;;;;;;26.71;24.75;96294.50;4870379;28;20060;-33
2022/04/19 00:19:34;;;;;;;1.25;0.88;;;;;;;26.71;24.68;96297.13;4873466;28;20126;-30
2022/04/19 00:22:00;;;;;;;1.80;0.82;;;;;;;26.71;24.69;96290.09;4872837;28;20624;-31
2022/04/19 00:24:25;;;;;;;1.33;0.80;;;;;;;26.71;24.70;96297.13;4874795;28;20046;-31
2022/04/19 00:26:51;;;;;;;2.10;0.90;;;;;;;26.70;24.69;96292.81;4876198;28;20031;-34
2022/04/19 00:29:16;;;;;;;1.48;0.90;;;;;;;26.71;24.75;96283.97;4874023;28;21032;-32
2022/04/19 00:31:41;;;;;;;1.42;0.70;;;;;;;26.71;24.74;96289.22;4904802;28;20035;-32
2022/04/19 00:34:07;;;;;;;2.25;1.00;;;;;;;26.71;24.75;96282.19;4916532;28;20035;-33
2022/04/19 00:36:32;;;;;;;1.13;0.60;;;;;;;26.70;24.79;96280.50;4912785;28;20027;-32
2022/04/19 00:38:58;;;;;;;0.98;0.70;;;;;;;26.71;24.78;96273.47;4907322;28;20031;-31
2022/04/19 00:41:23;;;;;;;0.82;0.60;;;;;;;26.70;24.73;96271.78;4911822;28;20024;-36
2022/04/19 00:43:49;;;;;;;1.45;0.80;;;;;;;26.70;24.79;96282.31;4916283;28;20039;-34
2022/04/19 00:46:14;;;;;;;1.25;0.75;;;;;;;26.69;24.64;96273.56;4925214;28;20031;-35
2022/04/19 00:48:40;;;;;;;1.73;1.00;;;;;;;26.69;24.77;96270.09;4919772;28;20039;-32
2022/04/19 00:51:05;;;;;;;2.20;1.00;;;;;;;26.70;24.68;96269.16;4922683;28;20701;-30
2022/04/19 00:53:31;;;;;;;1.38;0.77;;;;;;;26.69;24.71;96265.69;4938335;28;20138;-37
2022/04/19 00:55:57;;;;;;;1.08;0.70;;;;;;;26.70;24.56;96261.28;4910162;28;21490;-31
2022/04/19 00:58:22;;;;;;;1.75;0.80;;;;;;;26.70;24.82;96261.28;4933857;28;20047;-30
2022/04/19 01:00:50;;;;;;;0.98;0.65;;;;;;;26.69;24.82;96259.59;4911714;28;20031;-35
2022/04/19 01:03:15;;;;;;;3.50;0.68;;;;;;;26.67;24.79;96251.81;4927987;28;20032;-35
2022/04/19 01:05:43;;;;;;;2.72;0.95;;;;;;;26.68;24.69;96250.00;4910519;28;20037;-34
2022/04/19 01:08:09;;;;;;;2.88;0.80;;;;;;;26.69;24.82;96249.09;4910514;28;20110;-35
2022/04/19 01:10:35;;;;;;;1.27;0.80;;;;;;;26.69;24.58;96251.72;4915450;28;20086;-31
2022/04/19 01:13:18;;;;;;;1.55;0.93;;;;;;;26.68;24.74;96248.22;4909700;28;20042;-30
2022/04/19 01:15:45;;;;;;;0.77;0.70;;;;;;;26.68;24.75;96255.25;4912237;28;20059;-37
2022/04/19 01:18:11;;;;;;;0.85;0.60;;;;;;;26.67;24.61;96241.28;4912996;28;20482;-31
2022/04/19 01:20:38;;;;;;;1.15;0.73;;;;;;;26.67;24.76;96250.94;4914413;28;20027;-31
2022/04/19 01:23:04;;;;;;;0.98;0.80;;;;;;;26.67;24.75;96243.91;4910968;28;20043;-33
2022/04/19 01:25:29;;;;;;;1.45;0.80;;;;;;;26.67;24.76;96237.81;4908064;28;20039;-32
2022/04/19 01:27:55;;;;;;;1.95;0.90;;;;;;;26.66;24.75;96238.75;4911258;28;20042;-32
2022/04/19 01:30:20;;;;;;;0.85;0.55;;;;;;;26.66;24.70;96242.22;4910551;28;20073;-37
2022/04/19 01:32:45;;;;;;;1.80;0.75;;;;;;;26.67;24.77;96243.06;4909825;28;20035;-32
2022/04/19 01:35:14;;;;;;;1.85;0.80;;;;;;;26.67;24.81;96235.19;4913815;28;20040;-30
2022/04/19 01:37:49;;;;;;;1.10;0.70;;;;;;;26.66;24.81;96236.13;4912577;28;20031;-32
2022/04/19 01:40:18;;;;;;;1.95;0.85;;;;;;;26.66;24.87;96233.50;4909161;28;20707;-32
2022/04/19 01:42:46;;;;;;;0.90;0.80;;;;;;;26.65;24.81;96229.19;4912071;28;20653;-33
2022/04/19 01:45:15;;;;;;;1.15;0.80;;;;;;;26.65;24.72;96226.56;4915282;28;20066;-31
2022/04/19 01:47:41;;;;;;;0.85;0.57;;;;;;;26.64;24.84;96224.88;4916534;28;20746;-35
2022/04/19 01:50:10;;;;;;;2.65;0.70;;;;;;;26.65;24.78;96221.31;4911330;28;20042;-30
2022/04/19 01:52:39;;;;;;;1.90;0.60;;;;;;;26.63;24.66;96213.53;4915882;28;20573;-37
2022/04/19 01:55:06;;;;;;;0.60;0.60;;;;;;;26.64;24.88;96225.72;4913844;28;20035;-30
2022/04/19 01:57:32;;;;;;;2.75;0.95;;;;;;;26.62;24.88;96217.09;4912365;28;20751;-31
2022/04/19 01:59:57;;;;;;;0.80;0.60;;;;;;;26.64;24.79;96215.22;4894371;28;20040;-33
2022/04/19 02:02:23;;;;;;;1.35;0.63;;;;;;;26.64;24.93;96211.72;4910193;28;20074;-32
2022/04/19 02:04:50;;;;;;;1.50;0.82;;;;;;;26.64;24.90;96211.72;4911621;28;20430;-31
2022/04/19 02:07:16;;;;;;;1.05;0.60;;;;;;;26.64;24.69;96214.34;4910683;28;20031;-32
2022/04/19 02:09:41;;;;;;;1.30;0.82;;;;;;;26.64;24.79;96214.34;4913635;28;20042;-30
2022/04/19 02:12:07;;;;;;;0.88;0.60;;;;;;;26.64;24.72;96215.22;4920680;28;20066;-31
2022/04/19 02:14:33;;;;;;;2.45;0.80;;;;;;;26.64;24.84;96203.84;4909176;28;20032;-36
2022/04/19 02:16:58;;;;;;;1.38;0.80;;;;;;;26.63;24.74;96212.66;4910019;28;20122;-35
2022/04/19 02:19:23;;;;;;;1.08;0.70;;;;;;;26.64;24.78;96209.94;4908757;28;20027;-34
2022/04/19 02:21:49;;;;;;;1.10;0.73;;;;;;;26.63;24.80;96210.91;4918350;28;20035;-32
2022/04/19 02:24:14;;;;;;;1.55;0.55;;;;;;;26.63;24.77;96213.53;4918422;28;20035;-32
2022/04/19 02:26:40;;;;;;;0.82;0.52;;;;;;;26.62;24.89;96206.59;4920656;28;20486;-31
2022/04/19 02:29:05;;;;;;;0.82;0.60;;;;;;;26.61;24.91;96205.75;4921790;28;20040;-32
2022/04/19 02:31:30;;;;;;;0.73;0.63;;;;;;;26.61;24.79;96208.38;4920761;28;20027;-33
2022/04/19 02:33:58;;;;;;;0.70;0.60;;;;;;;26.61;24.81;96211.00;4920481;28;20468;-30
2022/04/19 02:36:27;;;;;;;1.75;0.70;;;;;;;26.62;24.81;96206.59;4924062;28;20492;-31
2022/04/19 02:38:52;;;;;;;2.00;1.20;;;;;;;26.60;24.88;96197.94;4938591;28;20581;-32
2022/04/19 02:41:18;;;;;;;2.40;0.90;;;;;;;26.61;24.93;96195.22;4926699;28;20043;-30
2022/04/19 02:43:43;;;;;;;2.20;0.68;;;;;;;26.61;24.83;96197.84;4926367;28;20059;-32
2022/04/19 02:46:09;;;;;;;1.33;0.57;;;;;;;26.60;24.92;96198.81;4927246;28;20032;-30
2022/04/19 02:48:34;;;;;;;3.38;0.55;;;;;;;26.61;24.91;96194.38;4926768;28;20034;-30
2022/04/19 02:51:00;;;;;;;0.70;0.68;;;;;;;26.60;24.85;96193.56;4926255;28;20040;-33
2022/04/19 02:53:26;;;;;;;1.35;0.63;;;;;;;26.60;24.82;96187.44;4917545;28;20497;-32
2022/04/19 02:55:51;;;;;;;0.68;0.68;;;;;;;26.59;24.92;96183.97;4914781;28;20145;-34
2022/04/19 02:58:17;;;;;;;1.40;0.55;;;;;;;26.59;24.79;96180.50;4915281;28;20031;-32
2022/04/19 03:00:43;;;;;;;0.93;0.80;;;;;;;26.60;24.86;96180.41;4914431;28;20732;-33
2022/04/19 03:03:11;;;;;;;0.95;0.68;;;;;;;26.60;24.96;96177.78;4916273;28;20035;-32
2022/04/19 03:05:40;;;;;;;0.80;0.57;;;;;;;26.59;24.92;96178.69;4915178;28;20114;-30
2022/04/19 03:08:06;;;;;;;0.77;0.60;;;;;;;26.60;24.94;96177.78;4908759;28;20031;-32
2022/04/19 03:10:32;;;;;;;1.08;0.57;;;;;;;26.60;24.85;96183.03;4916068;28;20063;-30
2022/04/19 03:12:57;;;;;;;0.95;0.68;;;;;;;26.59;24.80;96181.34;4916070;28;20498;-33
2022/04/19 03:15:23;;;;;;;2.63;0.70;;;;;;;26.59;24.84;96180.50;4914896;28;20062;-30
2022/04/19 03:17:49;;;;;;;1.52;0.70;;;;;;;26.60;24.92;96182.19;4915000;28;20046;-32
2022/04/19 03:20:15;;;;;;;0.57;0.50;;;;;;;26.59;24.91;96180.50;4915737;28;20076;-31
2022/04/19 03:28:09;;;;;;;0.52;0.50;;;;;;;26.59;24.97;96176.06;4918351;28;20031;-34
2022/04/19 03:30:35;;;;;;;0.85;0.70;;;;;;;26.58;24.88;96171.78;4917122;28;20043;-33
2022/04/19 03:33:00;;;;;;;1.77;0.82;;;;;;;26.57;24.88;96167.47;4914166;28;20114;-35
2022/04/19 03:35:26;;;;;;;1.88;0.60;;;;;;;26.55;25.01;96166.72;4916071;28;20035;-33
2022/04/19 03:37:51;;;;;;;0.93;0.70;;;;;;;26.57;25.02;96167.47;4912695;28;20340;-32
2022/04/19 03:40:17;;;;;;;1.13;0.57;;;;;;;26.58;24.70;96168.31;4916354;28;20571;-31
2022/04/19 03:42:42;;;;;;;0.70;0.50;;;;;;;26.57;24.93;96167.47;4911875;28;20046;-32
2022/04/19 03:45:09;;;;;;;1.75;0.50;;;;;;;26.57;25.03;96166.63;4910774;28;20035;-34
2022/04/19 03:47:35;;;;;;;0.80;0.70;;;;;;;26.57;24.85;96167.47;4920593;28;20031;-34
2022/04/19 03:50:00;;;;;;;1.30;0.75;;;;;;;26.57;24.93;96172.72;4919086;28;20094;-30
2022/04/19 03:52:26;;;;;;;1.27;0.63;;;;;;;26.56;24.96;96165.78;4920668;28;20142;-34
2022/04/19 03:54:52;;;;;;;3.45;1.48;;;;;;;26.56;25.19;96163.16;4923826;28;20766;-34
2022/04/19 03:57:18;;;;;;;2.58;1.00;;;;;;;26.56;25.04;96164.94;4920587;28;20090;-34
2022/04/19 03:59:43;;;;;;;1.50;0.77;;;;;;;26.56;25.13;96163.16;4913277;28;20416;-32
2022/04/19 04:02:09;;;;;;;0.85;0.63;;;;;;;26.56;25.03;96170.19;4912156;28;20027;-32
2022/04/19 04:04:35;;;;;;;1.45;0.60;;;;;;;26.56;24.97;96173.66;4927358;28;20047;-32
2022/04/19 04:07:04;;;;;;;1.42;0.77;;;;;;;26.56;25.00;96172.81;4911884;28;20032;-32
2022/04/19 04:09:32;;;;;;;1.38;0.80;;;;;;;26.55;25.09;96179.84;4908958;28;20970;-36
2022/04/19 04:12:04;;;;;;;1.25;0.70;;;;;;;26.55;25.14;96169.34;4916442;28;20049;-30
2022/04/19 04:14:30;;;;;;;0.88;0.63;;;;;;;26.55;24.96;96174.59;4922510;28;20514;-32
2022/04/19 04:16:55;;;;;;;2.00;0.75;;;;;;;26.56;25.10;96173.66;4918836;28;20118;-32
2022/04/19 04:19:21;;;;;;;3.42;0.90;;;;;;;26.55;25.04;96173.78;4919402;28;20146;-31
2022/04/19 04:21:46;;;;;;;1.45;0.85;;;;;;;26.55;25.13;96185.09;4924604;28;20101;-31
2022/04/19 04:24:12;;;;;;;0.90;0.60;;;;;;;26.55;25.05;96179.03;4927449;28;20106;-32
2022/04/19 04:26:37;;;;;;;2.40;0.50;;;;;;;26.55;24.99;96185.09;4925037;28;20944;-31
2022/04/19 04:29:02;;;;;;;0.85;0.70;;;;;;;26.55;25.21;96179.03;4923981;28;20034;-33
2022/04/19 04:31:28;;;;;;;1.58;0.70;;;;;;;26.54;25.04;96183.44;4941163;28;20032;-32
2022/04/19 04:33:53;;;;;;;0.90;0.60;;;;;;;26.54;25.03;96188.69;4923264;28;20062;-31
2022/04/19 04:36:19;;;;;;;1.23;0.73;;;;;;;26.54;25.10;96188.69;4923315;28;20067;-32
2022/04/19 04:38:45;;;;;;;1.00;0.52;;;;;;;26.53;25.17;96179.13;4928850;28;20127;-35
2022/04/19 04:41:10;;;;;;;2.75;0.70;;;;;;;26.51;25.11;96178.41;4942543;28;20051;-31
2022/04/19 04:43:37;;;;;;;0.80;0.50;;;;;;;26.54;24.96;96179.97;4928306;28;20102;-32
2022/04/19 04:51:31;;;;;;;1.48;0.70;;;;;;;26.52;25.11;96177.44;4923923;28;20050;-30
2022/04/19 04:53:56;;;;;;;1.10;0.73;;;;;;;26.52;25.06;96176.59;4923508;28;20031;-30
2022/04/19 04:56:23;;;;;;;0.80;0.47;;;;;;;26.52;25.08;96177.44;4925673;28;20039;-33
2022/04/19 04:58:49;;;;;;;2.00;0.40;;;;;;;26.51;25.10;96178.41;4924771;28;20042;-30
2022/04/19 05:01:14;;;;;;;1.20;0.60;;;;;;;26.51;25.01;96175.78;4923050;28;20023;-32
2022/04/19 05:03:40;;;;;;;0.90;0.50;;;;;;;26.52;25.16;96179.22;4923023;28;20046;-34
2022/04/19 05:06:05;;;;;;;1.50;0.60;;;;;;;26.50;25.03;96181.94;4927992;28;20865;-31
2022/04/19 05:08:31;;;;;;;2.05;0.77;;;;;;;26.51;25.14;96183.66;4928116;28;20035;-31
2022/04/19 05:10:56;;;;;;;1.25;0.70;;;;;;;26.51;25.10;96188.91;4923266;28;20031;-34
2022/04/19 05:13:21;;;;;;;1.25;0.68;;;;;;;26.50;25.13;96192.44;4929088;28;20489;-32
2022/04/19 05:15:47;;;;;;;1.67;0.50;;;;;;;26.50;25.04;96187.19;4927977;28;20841;-35
2022/04/19 05:18:14;;;;;;;0.73;0.57;;;;;;;26.50;25.10;96176.69;4928424;28;20039;-35
2022/04/19 05:20:40;;;;;;;0.63;0.50;;;;;;;26.50;25.15;96191.63;4926999;28;20695;-31
2022/04/19 05:23:06;;;;;;;1.00;0.75;;;;;;;26.50;25.16;96195.06;4919200;28;20046;-30
2022/04/19 05:25:31;;;;;;;2.75;0.70;;;;;;;26.50;25.18;96181.94;4912506;28;20039;-38
2022/04/19 05:27:57;;;;;;;4.72;0.80;;;;;;;26.50;25.03;96189.00;4922265;28;20035;-33
2022/04/19 05:30:22;;;;;;;2.55;0.60;;;;;;;26.50;25.13;96192.44;4917261;28;20836;-33
2022/04/19 05:32:48;;;;;;;1.40;1.05;;;;;;;26.50;25.19;96191.63;4914300;28;20062;-33
2022/04/19 05:35:13;;;;;;;1.95;0.70;;;;;;;26.50;25.20;96178.50;4920026;28;20931;-32
2022/04/19 05:37:39;;;;;;;1.80;0.80;;;;;;;26.50;25.24;96187.19;4920334;28;20031;-32
2022/04/19 05:40:05;;;;;;;2.15;0.70;;;;;;;26.51;25.11;96190.69;4917155;28;20062;-32
2022/04/19 05:42:31;;;;;;;1.75;0.70;;;;;;;26.50;25.06;96191.63;4922383;28;20066;-31
2022/04/19 05:44:56;;;;;;;1.63;0.65;;;;;;;26.48;25.20;96186.47;4919429;28;20035;-30
2022/04/19 05:47:21;;;;;;;0.70;0.70;;;;;;;26.49;25.21;96190.78;4917789;28;20023;-30
2022/04/19 05:49:47;;;;;;;1.70;0.57;;;;;;;26.49;25.18;96190.78;4915164;28;20043;-31
2022/04/19 05:52:13;;;;;;;1.45;0.77;;;;;;;26.49;25.29;96196.03;4917269;28;20039;-34
2022/04/19 05:54:38;;;;;;;2.50;0.65;;;;;;;26.48;25.32;96189.09;4919172;28;21137;-31
2022/04/19 05:57:04;;;;;;;1.15;0.68;;;;;;;26.50;25.07;96200.34;4920604;28;20680;-31
2022/04/19 05:59:29;;;;;;;1.13;0.60;;;;;;;26.49;25.18;96198.66;4921472;28;20428;-32
2022/04/19 06:04:53;;;;;;;1.42;0.70;;;;;;;26.49;25.07;96196.03;4921107;28;20735;-32
2022/04/19 06:07:29;;;;;;;1.38;0.80;;;;;;;26.47;25.10;96197.94;4920376;28;22149;-36
2022/04/19 06:09:55;;;;;;;2.28;0.73;;;;;;;26.48;25.09;96199.59;4918664;28;20034;-31
2022/04/19 06:12:21;;;;;;;1.23;0.70;;;;;;;26.48;25.09;96199.59;4921782;28;20094;-32
2022/04/19 06:14:46;;;;;;;0.93;0.57;;;;;;;26.48;24.98;96208.31;4916992;28;20023;-33
2022/04/19 06:17:15;;;;;;;1.02;0.68;;;;;;;26.48;25.12;96205.69;4921214;28;20394;-31
2022/04/19 06:19:41;;;;;;;2.72;0.70;;;;;;;26.48;25.23;96213.56;4913501;28;22354;-35
2022/04/19 06:22:06;;;;;;;2.60;0.75;;;;;;;26.48;24.97;96205.69;4914781;28;20165;-34
2022/04/19 06:24:32;;;;;;;2.22;0.60;;;;;;;26.48;25.11;96215.38;4919966;28;20979;-32
2022/04/19 06:26:57;;;;;;;0.60;0.52;;;;;;;26.49;25.13;96214.41;4934814;28;20034;-30
2022/04/19 06:29:22;;;;;;;1.02;0.60;;;;;;;26.49;25.14;96217.03;4916087;28;20834;-37
2022/04/19 06:31:48;;;;;;;1.50;0.88;;;;;;;26.47;25.20;96214.50;4915806;28;20043;-32
2022/04/19 06:34:13;;;;;;;1.98;1.00;;;;;;;26.48;25.13;96216.19;4915367;28;20402;-35
2022/04/19 06:36:39;;;;;;;3.00;0.73;;;;;;;26.50;25.20;96208.22;4915075;28;20035;-31
2022/04/19 06:39:04;;;;;;;5.75;0.70;;;;;;;26.49;25.09;96211.78;4912366;28;20541;-35
2022/04/19 06:41:30;;;;;;;2.47;1.00;;;;;;;26.50;25.14;96208.22;4911653;28;20062;-32
2022/04/19 06:43:58;;;;;;;10.80;1.38;;;;;;;26.51;25.22;96203.81;4923484;28;20043;-31
2022/04/19 06:46:25;;;;;;;16.45;2.35;;;;;;;26.51;25.20;96204.66;4917922;28;20035;-32
2022/04/19 06:48:56;;;;;;;3.97;1.73;;;;;;;26.52;25.12;96201.09;4907432;28;20059;-38
2022/04/19 06:51:22;;;;;;;5.97;1.85;;;;;;;26.54;25.22;96206.25;4911884;28;20051;-32
2022/04/19 06:53:48;;;;;;;6.72;1.90;;;;;;;26.55;25.29;96206.13;4910495;28;20055;-31
2022/04/19 06:56:13;;;;;;;7.45;2.05;;;;;;;26.55;25.17;96205.31;4915406;28;21001;-39
2022/04/19 06:58:42;;;;;;;11.32;2.67;;;;;;;26.57;25.24;96208.66;4899951;28;20801;-34
2022/04/19 07:01:08;;;;;;;10.23;2.95;;;;;;;26.58;25.30;96210.38;4913017;28;20035;-34
2022/04/19 07:03:33;;;;;;;7.45;2.47;;;;;;;26.58;25.33;96200.69;4909854;28;20038;-32
2022/04/19 07:05:59;;;;;;;11.55;3.22;;;;;;;26.59;25.28;96204.97;4915091;28;20028;-31
2022/04/19 07:08:25;;;;;;;8.93;3.25;;;;;;;26.60;25.37;96197.94;4911624;28;20028;-36
2022/04/19 07:10:50;;;;;;;12.77;3.42;;;;;;;26.61;25.34;96194.38;4911689;28;20535;-37
2022/04/19 07:13:15;;;;;;;8.18;3.28;;;;;;;26.63;25.45;96194.28;4911546;28;20043;-37
2022/04/19 07:15:41;;;;;;;10.70;3.13;;;;;;;26.61;25.47;96195.22;4912554;28;20019;-36
2022/04/19 07:18:06;;;;;;;11.52;3.10;;;;;;;26.63;25.43;96200.38;4909492;28;20055;-32
2022/04/19 07:28:44;;;;;;;12.40;3.28;;;;;;;26.70;25.53;96200.81;4908905;28;20038;-31
2022/04/19 07:31:10;;;;;;;10.38;3.50;;;;;;;26.69;25.50;96192.09;4914539;28;20536;-35
2022/04/19 07:33:37;;;;;;;9.70;2.72;;;;;;;26.71;25.49;96189.34;4915200;28;20110;-34
2022/04/19 07:36:04;;;;;;;10.32;3.10;;;;;;;26.72;25.58;96194.53;4914213;28;20058;-33
2022/04/19 07:38:29;;;;;;;8.70;2.78;;;;;;;26.74;25.50;96191.78;4911376;28;20032;-36
2022/04/19 07:40:54;;;;;;;10.57;3.13;;;;;;;26.74;25.46;96190.00;4910824;28;20035;-33
2022/04/19 07:43:20;;;;;;;10.48;2.45;;;;;;;26.74;25.81;96190.00;4912860;28;20035;-37
2022/04/19 07:45:45;;;;;;;14.52;2.95;;;;;;;26.77;25.54;96188.13;4915852;28;20030;-37
2022/04/19 07:48:12;;;;;;;9.50;2.72;;;;;;;26.77;25.52;96181.06;4916423;28;20027;-34
2022/04/19 07:50:39;;;;;;;10.20;3.15;;;;;;;26.79;25.45;96189.69;4912582;28;20032;-36
2022/04/19 07:53:05;;;;;;;9.95;2.65;;;;;;;26.80;25.51;96180.00;4912772;28;20069;-31
2022/04/19 07:55:30;;;;;;;7.30;2.22;;;;;;;26.81;25.55;96185.16;4913219;28;20559;-38
2022/04/19 07:57:55;;;;;;;10.93;3.03;;;;;;;26.83;25.64;96188.53;4917083;28;20050;-31
2022/04/19 08:00:21;;;;;;;6.22;2.50;;;;;;;26.84;25.61;96184.09;4910466;28;20167;-32
2022/04/19 08:02:47;;;;;;;9.52;2.38;;;;;;;26.84;25.63;96181.47;4911688;28;20126;-34
2022/04/19 08:05:12;;;;;;;8.60;2.50;;;;;;;26.83;25.57;96180.66;4912512;28;20094;-37
2022/04/19 08:07:38;;;;;;;8.48;2.53;;;;;;;26.84;25.64;96179.72;4916855;28;20736;-32
2022/04/19 08:10:04;;;;;;;8.75;2.50;;;;;;;26.85;25.59;96176.13;4911210;28;20410;-31
2022/04/19 08:12:31;;;;;;;5.30;2.65;;;;;;;26.85;25.41;96186.63;4911700;28;20102;-38
2022/04/19 08:14:56;;;;;;;10.25;2.63;;;;;;;26.85;25.57;96176.13;4917191;28;20077;-35
2022/04/19 08:17:21;;;;;;;5.95;2.08;;;;;;;26.85;25.70;96170.88;4920420;28;20039;-33
2022/04/19 08:19:47;;;;;;;6.68;2.17;;;;;;;26.85;25.71;96175.31;4921757;28;21123;-31
2022/04/19 08:22:12;;;;;;;11.88;2.67;;;;;;;26.85;25.69;96173.50;4926850;28;20059;-32
2022/04/19 08:24:38;;;;;;;17.17;3.28;;;;;;;26.84;25.24;96171.81;4916630;28;20028;-32
2022/04/19 08:27:04;;;;;;;15.45;3.10;;;;;;;26.82;24.77;96176.34;4917446;28;20059;-32
2022/04/19 08:29:30;;;;;;;15.73;3.25;;;;;;;26.80;24.55;96172.97;4905694;28;20708;-37
2022/04/19 08:31:55;;;;;;;13.65;4.03;;;;;;;26.77;24.43;96173.16;4916777;28;20047;-35
2022/04/19 08:34:21;;;;;;;11.23;3.35;;;;;;;26.72;24.44;96180.53;4918231;28;20035;-33
2022/04/19 08:36:46;;;;;;;15.07;4.10;;;;;;;26.69;24.24;96171.06;4917044;28;20054;-34
2022/04/19 08:39:12;;;;;;;13.13;3.83;;;;;;;26.67;24.16;96172.09;4915208;28;20473;-32
2022/04/19 08:41:39;;;;;;;11.32;3.25;;;;;;;26.62;24.06;96167.19;4922601;28;20120;-33
2022/04/19 08:44:04;;;;;;;10.35;3.20;;;;;;;26.60;24.01;96166.41;4934925;28;20054;-33
2022/04/19 08:46:31;;;;;;;13.88;3.33;;;;;;;26.58;23.98;96165.69;4917996;28;20039;-33
2022/04/19 08:48:57;;;;;;;8.95;3.33;;;;;;;26.55;23.76;96164.06;4922052;28;20027;-31
2022/04/19 08:51:25;;;;;;;9.55;2.75;;;;;;;26.53;23.82;96158.09;4924662;28;20035;-32
2022/04/19 08:59:29;;;;;;;8.73;3.63;;;;;;;26.28;21.84;96158.88;4914917;28;20142;-33
2022/04/19 09:01:54;;;;;;;9.43;3.75;;;;;;;26.12;21.52;96156.38;4915178;28;20031;-30
2022/04/19 09:04:23;;;;;;;10.52;3.90;;;;;;;25.96;21.22;96162.59;4920267;28;21842;-31
2022/04/19 09:06:52;;;;;;;7.93;3.65;;;;;;;25.80;20.95;96153.09;4915792;28;20039;-33
2022/04/19 09:09:20;;;;;;;7.45;3.30;;;;;;;25.68;20.91;96154.72;4912813;28;20035;-30
2022/04/19 09:11:45;;;;;;;5.47;3.00;;;;;;;25.64;21.06;96162.84;4934404;28;20034;-32
2022/04/19 09:14:11;;;;;;;5.82;2.58;;;;;;;25.60;21.39;96156.13;4918200;28;20035;-36
2022/04/19 09:16:36;;;;;;;4.05;2.50;;;;;;;25.59;21.36;96157.06;4922680;28;20750;-33
2022/04/19 09:19:02;;;;;;;5.93;2.55;;;;;;;25.61;21.54;96160.41;4914535;28;20038;-34
2022/04/19 09:21:40;;;;;;;9.07;2.83;;;;;;;25.64;21.70;96158.47;4933736;28;20027;-33
2022/04/19 09:24:19;;;;;;;11.57;3.40;;;;;;;25.67;21.85;96157.44;4924831;28;20463;-34
2022/04/19 09:26:53;;;;;;;11.00;3.05;;;;;;;25.72;21.71;96152.72;4926232;28;20036;-36
2022/04/19 09:29:21;;;;;;;9.10;2.85;;;;;;;25.75;21.89;96149.91;4929189;28;20039;-32
2022/04/19 09:31:51;;;;;;;14.68;2.97;;;;;;;25.79;22.01;96151.41;4923907;28;20529;-34
2022/04/19 09:34:23;;;;;;;11.48;3.30;;;;;;;25.85;22.03;96149.34;4939121;28;21247;-33
2022/04/19 09:36:53;;;;;;;13.18;3.50;;;;;;;25.89;22.21;96148.19;4923278;28;20633;-34
2022/04/19 09:39:25;;;;;;;13.07;3.63;;;;;;;25.91;22.16;96144.53;4938415;28;20028;-34
2022/04/19 09:41:59;;;;;;;14.85;3.83;;;;;;;25.96;22.28;96141.59;4927399;28;20035;-32
2022/04/19 09:44:24;;;;;;;11.38;3.78;;;;;;;26.00;22.32;96137.84;4929003;28;20065;-32
2022/04/19 09:47:06;;;;;;;17.85;4.22;;;;;;;26.03;22.43;96137.66;4930944;28;20763;-31
2022/04/19 09:49:52;;;;;;;14.73;3.50;;;;;;;26.06;22.41;96129.59;4927927;28;20090;-31
2022/04/19 09:52:20;;;;;;;20.70;4.10;;;;;;;26.08;22.42;96130.31;4930507;28;20127;-31
2022/04/19 09:54:45;;;;;;;12.07;4.38;;;;;;;26.12;22.37;96130.13;4930548;28;20038;-31
2022/04/19 09:57:11;;;;;;;14.95;3.90;;;;;;;26.15;22.62;96119.41;4929988;28;20024;-32
2022/04/19 09:59:46;;;;;;;15.52;4.25;;;;;;;26.16;22.60;96115.84;4924153;28;20469;-33
2022/04/19 10:10:26;;;;;;;20.95;4.38;;;;;;;26.26;22.95;96116.09;4921770;28;20520;-38
2022/04/19 10:12:53;;;;;;;26.60;4.32;;;;;;;26.27;23.01;96113.38;4927870;28;20027;-32
2022/04/19 10:15:19;;;;;;;17.98;3.35;;;;;;;26.29;22.75;96111.50;4921912;28;20030;-35
2022/04/19 10:17:44;;;;;;;9.00;2.92;;;;;;;26.31;22.73;96109.59;4918384;28;20703;-33
2022/04/19 10:20:10;;;;;;;10.98;2.95;;;;;;;26.34;22.75;96114.66;4920938;28;20976;-32
2022/04/19 10:22:36;;;;;;;15.38;3.47;;;;;;;26.34;22.64;96114.66;4919670;28;20031;-32
2022/04/19 10:25:03;;;;;;;22.23;3.53;;;;;;;26.35;22.58;96116.34;4903580;28;20055;-31
2022/04/19 10:27:31;;;;;;;7.45;2.97;;;;;;;26.37;22.43;96112.75;4911511;28;20039;-30
2022/04/19 10:29:57;;;;;;;8.10;2.75;;;;;;;26.37;22.31;96099.63;4920572;28;20078;-36
2022/04/19 10:32:30;;;;;;;6.72;2.85;;;;;;;26.37;21.96;96108.38;4925087;28;21493;-33
2022/04/19 10:35:00;;;;;;;11.95;3.25;;;;;;;26.38;21.97;96103.97;4925331;28;20040;-31
2022/04/19 10:37:26;;;;;;;10.27;3.30;;;;;;;26.38;21.96;96103.97;4922626;28;20482;-29
2022/04/19 10:39:58;;;;;;;10.10;3.30;;;;;;;26.39;21.72;96108.25;4923495;28;20039;-29
2022/04/19 10:42:30;;;;;;;;;;;;;;;26.41;21.85;96109.00;4923594;28;20082;-32
2022/04/19 10:44:56;;;;;;;;;;;;;;;26.41;21.70;96098.47;4925116;28;20478;-32
2022/04/19 10:47:23;;;;;;;11.40;3.45;;;;;;;26.41;21.59;96109.00;4938686;28;19918;-30
2022/04/19 10:49:48;;;;;;;11.52;3.13;;;;;;;26.40;21.27;96104.69;4927481;28;20028;-30
2022/04/19 10:52:36;;;;;;;9.32;3.00;;;;;;;26.40;21.13;96105.53;4926393;28;20151;-31
2022/04/19 10:55:03;;;;;;;5.55;2.83;;;;;;;26.39;20.88;96093.31;4928821;28;20126;-35
2022/04/19 11:00:28;;;;;;;7.03;2.47;;;;;;;26.37;21.04;96091.75;4927586;28;20603;-36
2022/04/19 11:03:00;;;;;;;5.85;2.50;;;;;;;26.37;20.75;96091.75;4926537;28;20036;-32
2022/04/19 11:05:47;;;;;;;4.97;2.20;;;;;;;26.37;20.81;96092.59;4927267;28;20052;-32
2022/04/19 11:08:22;;;;;;;7.65;2.38;;;;;;;26.38;20.58;96093.47;4928799;28;20035;-35
2022/04/19 11:10:47;;;;;;;3.80;2.10;;;;;;;26.38;20.59;96090.81;4929098;28;20028;-35
2022/04/19 11:13:13;;;;;;;4.30;2.03;;;;;;;26.38;20.64;96088.19;4930067;28;20522;-28
2022/04/19 11:15:38;;;;;;;4.35;2.10;;;;;;;26.38;20.50;96081.16;4927431;28;20043;-32
2022/04/19 11:18:22;;;;;;;6.07;2.03;;;;;;;26.38;20.40;96078.50;4927796;28;21213;-33
2022/04/19 11:20:49;;;;;;;6.93;1.77;;;;;;;26.40;20.56;96075.78;4927101;28;20055;-38
2022/04/19 11:23:26;;;;;;;5.85;2.10;;;;;;;26.39;20.58;96074.13;4926360;28;20730;-35
2022/04/19 11:25:55;;;;;;;3.28;2.03;;;;;;;26.39;20.36;96069.69;4927569;28;20039;-33
2022/04/19 11:28:21;;;;;;;3.63;2.10;;;;;;;26.40;20.50;96071.38;4925756;28;20035;-32
2022/04/19 11:30:50;;;;;;;3.22;1.95;;;;;;;26.41;20.44;96064.34;4929799;28;20035;-33
2022/04/19 11:33:24;;;;;;;3.88;2.00;;;;;;;26.41;20.49;96066.97;4931896;28;20027;-32
2022/04/19 11:36:05;;;;;;;4.47;2.38;;;;;;;26.41;20.34;96056.44;4928521;28;20032;-33
2022/04/19 11:38:36;;;;;;;4.07;2.27;;;;;;;26.41;20.40;96057.31;4925808;28;20039;-30
2022/04/19 11:46:44;;;;;;;4.05;2.10;;;;;;;26.42;20.33;96052.88;4924283;28;20117;-33
2022/04/19 11:49:15;;;;;;;5.88;2.28;;;;;;;26.43;20.17;96054.56;4930346;28;20058;-31
2022/04/19 11:51:41;;;;;;;4.10;2.65;;;;;;;26.43;20.05;96054.56;4928202;28;20098;-33
2022/04/19 11:54:08;;;;;;;7.60;2.65;;;;;;;26.42;20.08;96050.25;4914844;28;20070;-32
2022/04/19 11:56:33;;;;;;;5.22;2.40;;;;;;;26.42;19.91;96053.72;4927851;28;20058;-31
2022/04/19 11:59:00;;;;;;;5.55;2.42;;;;;;;26.41;19.77;96051.19;4930372;28;20414;-39
2022/04/19 12:01:26;;;;;;;4.68;2.30;;;;;;;26.41;19.83;96045.94;4927522;28;20062;-34
2022/04/19 12:03:52;;;;;;;3.65;2.20;;;;;;;26.40;19.86;96041.63;4925866;28;20438;-31
2022/04/19 12:06:18;;;;;;;7.55;2.00;;;;;;;26.40;20.06;96045.13;4926942;28;20127;-34
2022/04/19 12:08:45;;;;;;;6.13;2.30;;;;;;;26.41;19.88;96043.31;4927183;28;20386;-33
2022/04/19 12:11:12;;;;;;;5.55;2.25;;;;;;;26.41;19.68;96033.66;4926979;28;20037;-34
2022/04/19 12:13:38;;;;;;;6.55;2.25;;;;;;;26.41;19.54;96035.44;4922727;28;20048;-32